Flight Track Log - Related Links

Times and Time Zones

All times are in EDT time to prevent confusion due to time zone crossing. See the SKW6306 flight status page for this flight to view local times or setup timezone preferences in your user account.


Time Position Orientation Groundspeed Altitude Reporting Facility
EDT Latitude Longitude Course Direction KTS MPH feet Rate Location/Type
Thu 02:40:22 PM 39.9333 -104.7000 346° North 203 234 7,300  Level Denver TRACON
Thu 02:41:01 PM 39.9761 -104.6883 12° North 216 249 8,600 1,545 Climbing Denver Center
Thu 02:42:03 PM 40.0503 -104.6594 17° North 258 297 9,900 1,403 Climbing Denver Center
Thu 02:43:00 PM 40.2682 -104.8021 347° North  Level FlightAware Approximate
Thu 02:43:05 PM 40.1300 -104.6781 350° North 288 331 11,500  Level Denver Center
Thu 02:44:00 PM 40.3731 -104.8355 346° North  Level FlightAware Approximate
Thu 02:44:07 PM 40.2192 -104.7008 349° North 301 346 13,400  Level Denver Center
Thu 02:45:00 PM 40.4776 -104.8703 346° North  Level FlightAware Approximate
Thu 02:45:09 PM 40.2997 -104.7228 348° North 297 342 15,000  Level Denver Center
Thu 02:46:11 PM 40.3903 -104.7461 349° North 310 357 16,600 1,306 Climbing Denver Center
Thu 02:47:13 PM 40.4739 -104.7681 349° North 307 353 17,700 1,016 Climbing Denver Center
Thu 02:48:15 PM 40.5608 -104.7906 349° North 317 365 18,700 968 Climbing Denver Center
Thu 02:49:17 PM 40.6547 -104.8172 348° North 324 373 19,700 919 Climbing Denver Center
Thu 02:50:19 PM 40.7461 -104.8403 349° North 333 383 20,600 823 Climbing Denver Center
Thu 02:51:21 PM 40.8222 -104.8642 347° North 323 372 21,400 871 Climbing Denver Center
Thu 02:52:23 PM 40.9269 -104.8967 347° North 340 391 22,400 1,065 Climbing Denver Center
Thu 02:53:25 PM 41.0344 -104.9189 351° North 349 402 23,600 1,016 Climbing Denver Center
Thu 02:54:27 PM 41.1278 -104.9375 351° North 352 405 24,500 919 Climbing Denver Center
Thu 02:55:29 PM 41.2347 -104.9592 351° North 350 403 25,500 726 Climbing Denver Center
Thu 02:56:31 PM 41.3281 -104.9819 350° North 352 405 26,000 629 Climbing Denver Center
Thu 02:57:33 PM 41.4406 -105.0050 351° North 361 415 26,800 581 Climbing Denver Center
Thu 02:58:35 PM 41.5361 -105.0258 351° North 361 415 27,200 484 Climbing Denver Center
Thu 02:59:37 PM 41.6494 -105.0506 351° North 369 425 27,800 439 Climbing Denver Center
Thu 03:00:38 PM 41.7331 -105.0697 350° North 375 432 28,100 387 Climbing Denver Center
Thu 03:01:41 PM 41.8503 -105.0933 351° North 380 437 28,600 432 Climbing Denver Center
Thu 03:02:43 PM 41.9686 -105.1203 350° North 383 441 29,000 435 Climbing Denver Center
Thu 03:03:45 PM 42.0697 -105.1422 351° North 383 441 29,500 484 Climbing Denver Center
Thu 03:04:47 PM 42.1894 -105.1686 351° North 387 445 30,000 484 Climbing Denver Center
Thu 03:05:49 PM 42.2908 -105.1900 351° North 385 443 30,500 532 Climbing Denver Center
Thu 03:06:51 PM 42.4092 -105.2156 351° North 383 441 31,100 532 Climbing Denver Center
Thu 03:07:53 PM 42.5108 -105.2392 350° North 384 442 31,600 435 Climbing Denver Center
Thu 03:08:55 PM 42.6275 -105.2656 351° North 380 437 32,000 194 Climbing Denver Center
Thu 03:09:57 PM 42.7283 -105.2881 351° North 380 437 32,000  Level Denver Center
Thu 03:10:59 PM 42.8319 -105.3103 351° North 385 443 32,000  Level Denver Center
Thu 03:12:01 PM 42.9525 -105.3350 351° North 390 449 32,000  Level Denver Center
Thu 03:13:03 PM 43.0547 -105.3583 351° North 388 447 32,000  Level Denver Center
Thu 03:14:05 PM 43.1739 -105.3847 351° North 387 445 32,000  Level Denver Center
Thu 03:15:07 PM 43.2758 -105.4078 351° North 388 447 32,000  Level Denver Center
Thu 03:16:09 PM 43.3939 -105.4344 351° North 386 444 32,000  Level Denver Center
Thu 03:17:11 PM 43.4939 -105.4561 351° North 382 440 32,000  Level Denver Center
Thu 03:18:13 PM 43.6108 -105.4836 350° North 382 440 32,000  Level Denver Center
Thu 03:19:15 PM 43.7103 -105.5053 351° North 379 436 32,000  Level Denver Center
Thu 03:20:17 PM 43.8094 -105.5286 350° North 378 435 32,000  Level Denver Center
Thu 03:21:19 PM 43.9267 -105.5553 351° North 380 437 32,000  Level Denver Center
Thu 03:22:21 PM 44.0261 -105.5786 350° North 380 437 32,000  Level Denver Center
Thu 03:23:23 PM 44.1422 -105.6042 351° North 378 435 32,000  Level Denver Center
Thu 03:24:25 PM 44.2428 -105.6272 351° North 380 437 32,000  Level Denver Center
Thu 03:25:27 PM 44.3600 -105.6542 351° North 381 438 32,000  Level Denver Center
Thu 03:26:13 PM 44.4444 -105.6767 349° North 383 441 32,000  Level Salt Lake Center
Thu 03:27:15 PM 44.5444 -105.7000 351° North 382 440 32,000  Level Salt Lake Center
Thu 03:28:17 PM 44.6628 -105.7281 350° North 385 443 32,000  Level Salt Lake Center
Thu 03:29:19 PM 44.7633 -105.7536 350° North 384 442 32,000  Level Salt Lake Center
Thu 03:30:21 PM 44.8636 -105.7786 350° North 383 441 32,000  Level Salt Lake Center
Thu 03:31:23 PM 44.9819 -105.8031 352° North 383 441 32,000  Level Salt Lake Center
Thu 03:32:25 PM 45.0819 -105.8283 350° North 382 440 32,000  Level Salt Lake Center
Thu 03:33:27 PM 45.2011 -105.8564 351° North 387 445 32,000  Level Salt Lake Center
Thu 03:34:29 PM 45.3136 -105.8836 350° North 387 445 32,000  Level Salt Lake Center
Thu 03:35:31 PM 45.4200 -105.9100 350° North 389 448 32,000  Level Salt Lake Center
Thu 03:36:34 PM 45.5261 -105.9356 350° North 388 447 32,000  Level Salt Lake Center
Thu 03:37:36 PM 45.6325 -105.9606 351° North 387 445 32,000  Level Salt Lake Center
Thu 03:38:38 PM 45.7394 -105.9875 350° North 389 448 32,000  Level Salt Lake Center
Thu 03:39:40 PM 45.8456 -106.0125 351° North 388 447 32,000  Level Salt Lake Center
Thu 03:40:42 PM 45.9725 -106.0431 351° North 387 445 32,000  Level Salt Lake Center
Thu 03:41:44 PM 46.0794 -106.0683 351° North 387 445 32,000  Level Salt Lake Center
Thu 03:42:46 PM 46.1864 -106.0958 350° North 388 447 32,000  Level Salt Lake Center
Thu 03:43:48 PM 46.2922 -106.1219 350° North 388 447 32,000  Level Salt Lake Center
Thu 03:44:50 PM 46.3997 -106.1489 350° North 389 448 32,000  Level Salt Lake Center
Thu 03:45:52 PM 46.5064 -106.1761 350° North 389 448 32,000  Level Salt Lake Center
Thu 03:46:54 PM 46.6128 -106.2042 350° North 389 448 32,000  Level Salt Lake Center
Thu 03:47:56 PM 46.7400 -106.2361 350° North 388 447 32,000  Level Salt Lake Center
Thu 03:48:58 PM 46.8469 -106.2631 350° North 389 448 32,000  Level Salt Lake Center
Thu 03:50:00 PM 46.9528 -106.2908 350° North 388 447 32,000  Level Salt Lake Center
Thu 03:51:02 PM 47.0589 -106.3200 349° North 388 447 32,000  Level Salt Lake Center
Thu 03:52:04 PM 47.1644 -106.3464 350° North 388 447 32,000  Level Salt Lake Center
Thu 03:53:06 PM 47.2692 -106.3731 350° North 386 444 32,000  Level Salt Lake Center
Thu 03:54:08 PM 47.3989 -106.4072 350° North 389 448 32,000  Level Salt Lake Center
Thu 03:55:10 PM 47.5031 -106.4350 350° North 385 443 32,000  Level Salt Lake Center
Thu 03:56:11 PM 47.6075 -106.4633 350° North 382 440 32,000  Level Salt Lake Center
Thu 03:57:13 PM 47.7111 -106.4906 350° North 381 438 32,000  Level Salt Lake Center
Thu 03:58:16 PM 47.8150 -106.5172 350° North 380 437 32,000  Level Salt Lake Center
Thu 03:59:17 PM 47.9186 -106.5467 349° North 380 437 32,000  Level Salt Lake Center
Thu 04:00:19 PM 48.0219 -106.5739 350° North 378 435 32,000  Level Salt Lake Center
Thu 04:01:21 PM 48.1458 -106.6069 350° North 378 435 32,000  Level Salt Lake Center
Thu 04:02:23 PM 48.2492 -106.6406 348° North 379 436 32,000  Level Salt Lake Center
Thu 04:03:25 PM 48.3475 -106.6897 342° North 377 434 32,000  Level Salt Lake Center
Thu 04:04:27 PM 48.4456 -106.7378 342° North 374 430 32,000  Level Salt Lake Center
Thu 04:05:29 PM 48.5428 -106.7856 342° North 370 426 32,000  Level Salt Lake Center
Thu 04:06:31 PM 48.6403 -106.8344 342° North 370 426 32,000  Level Salt Lake Center
Thu 04:07:33 PM 48.7578 -106.8933 342° North 370 426 32,000  Level Salt Lake Center
Thu 04:08:35 PM 48.8553 -106.9431 341° North 372 428 32,000  Level Salt Lake Center
Thu 04:09:37 PM 48.9514 -106.9906 342° North 366 421 32,000  Level Salt Lake Center
Thu 04:10:39 PM 49.0492 -107.0361 343° North 368 423 32,000  Level Salt Lake Center
Thu 04:11:41 PM 49.1553 -107.0489 355° North 376 433 32,000  Level Salt Lake Center
Thu 04:12:43 PM 49.2622 -107.0644 355° North 382 440 32,000  Level Salt Lake Center
Thu 04:13:45 PM 49.3889 -107.0819 355° North 382 440 32,000  Level Salt Lake Center
Thu 04:14:39 PM 49.4500 -107.1333 331° Northwest 380 437 32,000  Level Winnipeg Center
Thu 04:15:39 PM 49.5500 -107.1500 354° North 380 437 32,000  Level Winnipeg Center
Thu 04:16:39 PM 49.6667 -107.1500 360° North 370 426 32,000  Level Winnipeg Center
Thu 04:17:39 PM 49.7667 -107.1667 354° North 370 426 32,000  Level Winnipeg Center
Thu 04:18:39 PM 49.8667 -107.1833 354° North 370 426 32,000  Level Winnipeg Center
Thu 04:19:39 PM 49.9667 -107.2167 348° North 360 414 32,000  Level Winnipeg Center
Thu 04:20:39 PM 50.0667 -107.2000 North 370 426 32,000  Level Winnipeg Center
Thu 04:21:39 PM 50.1833 -107.2333 350° North 370 426 32,000  Level Winnipeg Center
Thu 04:22:39 PM 50.2833 -107.2333 360° North 380 437 32,000  Level Winnipeg Center
Thu 04:23:39 PM 50.4000 -107.1667 20° North 400 460 32,000  Level Winnipeg Center
Thu 04:24:39 PM 50.5000 -107.1500 North 400 460 32,000  Level Winnipeg Center
Thu 04:25:39 PM 50.6000 -107.0833 23° Northeast 390 449 32,000  Level Winnipeg Center
Thu 04:26:39 PM 50.7167 -107.0500 10° North 390 449 32,000 -800 Level Winnipeg Center
Thu 04:27:39 PM 50.8167 -107.0000 18° North 400 460 30,400 -1,850 Descending Winnipeg Center
Thu 04:28:39 PM 50.9167 -106.9667 12° North 390 449 28,300 -2,050 Descending Winnipeg Center
Thu 04:29:39 PM 51.0167 -106.9333 12° North 370 426 26,300 -1,950 Descending Winnipeg Center
Thu 04:30:39 PM 51.1167 -106.9000 12° North 350 403 24,400 -2,000 Descending Winnipeg Center
Thu 04:31:39 PM 51.2167 -106.8500 17° North 340 391 22,300 -2,050 Descending Winnipeg Center
Thu 04:32:39 PM 51.3000 -106.8167 14° North 330 380 20,300 -2,050 Descending Winnipeg Center
Thu 04:33:39 PM 51.3833 -106.7833 14° North 320 368 18,200 -1,950 Descending Winnipeg Center
Thu 04:34:39 PM 51.4833 -106.7667 North 310 357 16,400 -1,900 Descending Winnipeg Center
Thu 04:35:39 PM 51.5500 -106.7333 17° North 300 345 14,400 -2,050 Descending Winnipeg Center
Thu 04:36:39 PM 51.6333 -106.7000 14° North 300 345 12,300 -2,000 Descending Winnipeg Center
Thu 04:37:39 PM 51.7000 -106.6500 25° Northeast 290 334 10,400 -1,950 Descending Winnipeg Center
Thu 04:38:39 PM 51.8000 -106.6167 12° North 290 334 8,400 -1,950 Descending Winnipeg Center
Thu 04:39:39 PM 51.8667 -106.6000 North 280 322 6,500 -1,750 Descending Winnipeg Center
Thu 04:40:39 PM 51.9333 -106.5667 17° North 270 311 4,900 -1,050 Descending Winnipeg Center
Thu 04:41:39 PM 52.0000 -106.5333 17° North 260 299 4,400 -500 Descending Winnipeg Center
Thu 04:42:39 PM 52.0667 -106.5167 North 240 276 3,900 -500 Descending Winnipeg Center

Login

Don't have an account? Register now (free) for customized features, flight alerts, and more!